Wetterdaten: Woche 07.11.16 - 13.11.16 (KW45)
Datum Zeit Temp. Aussen Temp. o. S. +5cm Feuchte Auss BlattFeu 1 Luftdruck Regen Sonnenschein Regendauer Solar Windben Empfang
07.11.2016 00:00 5,4 C 5,0 C 4,2 C 92 % 0 lf 1000,8 hPa 0,0 l/m 0,00 h 0,00 h 0 W/m 11,0 km/h (2 Bft) 97,96 %
07.11.2016 01:00 5,5 C 5,4 C 4,2 C 91 % 0 lf 1001,2 hPa 0,0 l/m 0,00 h 0,00 h 0 W/m 9,6 km/h (2 Bft) 95,59 %
07.11.2016 02:00 5,4 C 5,6 C 3,9 C 91 % 0 lf 1001,7 hPa 0,0 l/m 0,00 h 0,07 h 0 W/m 9,3 km/h (2 Bft) 96,73 %
07.11.2016 03:00 5,2 C 5,0 C 3,8 C 92 % 0 lf 1002,0 hPa 0,0 l/m 0,00 h 0,00 h 0 W/m 5,9 km/h (2 Bft) 95,23 %
07.11.2016 04:00 5,0 C 5,0 C 3,9 C 93 % 0 lf 1002,3 hPa 0,0 l/m 0,00 h 0,00 h 0 W/m 4,0 km/h (1 Bft) 96,46 %
07.11.2016 05:00 4,9 C 5,0 C 3,9 C 93 % 0 lf 1002,8 hPa 0,0 l/m 0,00 h 0,00 h 0 W/m 2,7 km/h (1 Bft) 96,09 %
07.11.2016 06:00 4,9 C 5,0 C 3,9 C 94 % 0 lf 1003,0 hPa 0,0 l/m 0,00 h 0,13 h 0 W/m 3,8 km/h (1 Bft) 96,50 %
07.11.2016 07:00 4,9 C 5,0 C 3,9 C 94 % 3 lf 1003,6 hPa 0,0 l/m 0,00 h 0,03 h 0 W/m 3,4 km/h (1 Bft) 97,51 %
07.11.2016 08:00 5,0 C 5,2 C 4,0 C 94 % 0 lf 1004,2 hPa 0,0 l/m 0,00 h 0,00 h 14 W/m 7,4 km/h (2 Bft) 94,16 %
07.11.2016 09:00 5,1 C 5,6 C 4,4 C 94 % 0 lf 1004,7 hPa 0,0 l/m 0,00 h 0,00 h 24 W/m 9,0 km/h (2 Bft) 95,72 %
07.11.2016 10:00 5,1 C 5,6 C 4,4 C 94 % 0 lf 1005,2 hPa 0,0 l/m 0,00 h 0,00 h 36 W/m 9,4 km/h (2 Bft) 97,08 %
07.11.2016 11:00 5,2 C 5,8 C 4,8 C 94 % 0 lf 1005,5 hPa 0,0 l/m 0,00 h 0,00 h 54 W/m 10,6 km/h (2 Bft) 96,51 %
07.11.2016 12:00 5,4 C 6,0 C 5,0 C 95 % 0 lf 1005,8 hPa 0,0 l/m 0,00 h 0,00 h 47 W/m 8,8 km/h (2 Bft) 93,72 %
07.11.2016 13:00 5,5 C 5,7 C 4,8 C 95 % 12 lf 1005,9 hPa 0,4 l/m 0,00 h 0,83 h 61 W/m 9,0 km/h (2 Bft) 97,80 %
07.11.2016 14:00 5,7 C 5,9 C 5,0 C 96 % 15 lf 1006,0 hPa 0,0 l/m 0,00 h 0,37 h 55 W/m 8,3 km/h (2 Bft) 94,38 %
07.11.2016 15:00 5,9 C 5,9 C 4,9 C 96 % 15 lf 1006,2 hPa 0,0 l/m 0,00 h 0,30 h 27 W/m 8,1 km/h (2 Bft) 97,58 %
07.11.2016 16:00 5,7 C 5,6 C 4,4 C 96 % 15 lf 1006,4 hPa 0,0 l/m 0,00 h 0,83 h 7 W/m 9,1 km/h (2 Bft) 95,44 %
07.11.2016 17:00 5,4 C 5,3 C 4,2 C 96 % 15 lf 1006,7 hPa 0,2 l/m 0,00 h 0,53 h 0 W/m 9,9 km/h (2 Bft) 94,80 %
07.11.2016 18:00 4,6 C 4,2 C 3,1 C 96 % 15 lf 1007,3 hPa 0,6 l/m 0,00 h 0,97 h 0 W/m 12,5 km/h (3 Bft) 97,46 %
07.11.2016 19:00 3,9 C 3,6 C 2,5 C 96 % 15 lf 1007,5 hPa 0,4 l/m 0,00 h 1,00 h 0 W/m 11,2 km/h (2 Bft) 97,22 %
07.11.2016 20:00 3,2 C 3,2 C 2,2 C 96 % 15 lf 1007,8 hPa 0,2 l/m 0,00 h 0,97 h 0 W/m 10,8 km/h (2 Bft) 95,37 %
07.11.2016 21:00 2,9 C 2,8 C 1,8 C 96 % 15 lf 1008,1 hPa 0,6 l/m 0,00 h 0,90 h 0 W/m 10,8 km/h (2 Bft) 94,95 %
07.11.2016 22:00 2,8 C 2,8 C 1,7 C 97 % 15 lf 1008,1 hPa 0,0 l/m 0,00 h 0,03 h 0 W/m 10,6 km/h (2 Bft) 96,81 %
07.11.2016 23:00 2,8 C 2,8 C 1,7 C 97 % 15 lf 1008,1 hPa 0,0 l/m 0,00 h 0,03 h 0 W/m 11,0 km/h (2 Bft) 96,51 %
08.11.2016 00:00 2,9 C 3,0 C 2,0 C 97 % 15 lf 1008,2 hPa 0,0 l/m 0,00 h 0,13 h 0 W/m 9,9 km/h (2 Bft) 96,12 %
08.11.2016 01:00 2,9 C 2,8 C 1,8 C 97 % 15 lf 1008,1 hPa 0,0 l/m 0,00 h 0,00 h 0 W/m 8,9 km/h (2 Bft) 94,31 %
08.11.2016 02:00 2,9 C 2,8 C 1,7 C 97 % 15 lf 1008,1 hPa 0,0 l/m 0,00 h 0,00 h 0 W/m 10,0 km/h (2 Bft) 97,44 %
08.11.2016 03:00 2,8 C 2,8 C 1,7 C 97 % 15 lf 1008,0 hPa 0,0 l/m 0,00 h 0,00 h 0 W/m 9,6 km/h (2 Bft) 94,88 %
08.11.2016 04:00 2,8 C 2,8 C 1,9 C 97 % 15 lf 1008,0 hPa 0,0 l/m 0,00 h 0,00 h 0 W/m 7,9 km/h (2 Bft) 97,64 %
08.11.2016 05:00 2,9 C 2,8 C 2,0 C 97 % 14 lf 1008,0 hPa 0,0 l/m 0,00 h 0,00 h 0 W/m 7,6 km/h (2 Bft) 95,08 %
08.11.2016 06:00 2,9 C 2,8 C 1,8 C 97 % 13 lf 1008,1 hPa 0,0 l/m 0,00 h 0,00 h 0 W/m 8,4 km/h (2 Bft) 93,46 %
08.11.2016 07:00 2,7 C 2,8 C 1,7 C 97 % 7 lf 1008,3 hPa 0,0 l/m 0,00 h 0,00 h 7 W/m 11,3 km/h (2 Bft) 98,64 %
08.11.2016 08:00 2,3 C 2,3 C 1,1 C 97 % 0 lf 1008,8 hPa 0,0 l/m 0,00 h 0,00 h 35 W/m 10,1 km/h (2 Bft) 96,37 %
08.11.2016 09:00 2,2 C 3,6 C 1,9 C 96 % 0 lf 1009,1 hPa 0,0 l/m 0,20 h 0,00 h 99 W/m 8,0 km/h (2 Bft) 95,36 %
08.11.2016 10:00 2,9 C 6,0 C 2,8 C 96 % 0 lf 1009,3 hPa 0,0 l/m 0,63 h 0,00 h 175 W/m 13,0 km/h (3 Bft) 96,15 %
08.11.2016 11:00 2,9 C 4,9 C 3,2 C 93 % 0 lf 1009,5 hPa 0,0 l/m 0,30 h 0,00 h 173 W/m 10,3 km/h (2 Bft) 96,30 %
08.11.2016 12:00 3,8 C 5,9 C 4,3 C 89 % 0 lf 1009,2 hPa 0,0 l/m 0,20 h 0,00 h 151 W/m 8,9 km/h (2 Bft) 95,37 %
08.11.2016 13:00 4,1 C 8,4 C 4,3 C 87 % 0 lf 1009,1 hPa 0,0 l/m 0,60 h 0,00 h 234 W/m 7,8 km/h (2 Bft) 96,94 %
08.11.2016 14:00 4,9 C 8,3 C 4,1 C 84 % 0 lf 1008,8 hPa 0,0 l/m 0,80 h 0,00 h 153 W/m 7,9 km/h (2 Bft) 95,09 %
08.11.2016 15:00 5,1 C 7,1 C 4,6 C 83 % 0 lf 1008,8 hPa 0,0 l/m 0,70 h 0,00 h 104 W/m 8,0 km/h (2 Bft) 96,51 %
08.11.2016 16:00 4,9 C 4,5 C 2,8 C 83 % 0 lf 1008,9 hPa 0,0 l/m 0,40 h 0,00 h 28 W/m 2,8 km/h (1 Bft) 95,94 %
08.11.2016 17:00 3,7 C 2,6 C 0,8 C 85 % 0 lf 1008,8 hPa 0,0 l/m 0,00 h 0,00 h 5 W/m 6,7 km/h (2 Bft) 94,94 %
08.11.2016 18:00 2,5 C 2,0 C 0,2 C 89 % 0 lf 1008,7 hPa 0,0 l/m 0,00 h 0,00 h 4 W/m 6,0 km/h (2 Bft) 96,36 %
08.11.2016 19:00 2,0 C 2,0 C 0,5 C 92 % 0 lf 1008,5 hPa 0,0 l/m 0,00 h 0,00 h 5 W/m 7,8 km/h (2 Bft) 97,23 %
08.11.2016 20:00 1,7 C 1,9 C 0,4 C 93 % 0 lf 1008,3 hPa 0,0 l/m 0,00 h 0,00 h 0 W/m 7,8 km/h (2 Bft) 95,09 %
08.11.2016 21:00 1,7 C 1,8 C 0,6 C 94 % 0 lf 1008,1 hPa 0,0 l/m 0,00 h 0,00 h 0 W/m 8,1 km/h (2 Bft) 94,80 %
08.11.2016 22:00 1,7 C 2,2 C 0,8 C 94 % 0 lf 1007,7 hPa 0,0 l/m 0,00 h 0,00 h 0 W/m 8,8 km/h (2 Bft) 96,15 %
08.11.2016 23:00 1,7 C 1,8 C 0,2 C 94 % 0 lf 1007,3 hPa 0,0 l/m 0,00 h 0,00 h 3 W/m 11,1 km/h (2 Bft) 98,58 %
09.11.2016 00:00 1,4 C 1,2 C -0,6 C 94 % 1 lf 1007,0 hPa 0,0 l/m 0,00 h 0,00 h 4 W/m 12,0 km/h (2 Bft) 94,74 %
09.11.2016 01:00 1,0 C 0,8 C -1,1 C 94 % 1 lf 1006,2 hPa 0,0 l/m 0,00 h 0,00 h 5 W/m 7,3 km/h (2 Bft) 95,44 %
09.11.2016 02:00 0,3 C -0,0 C -1,9 C 94 % 3 lf 1005,7 hPa 0,0 l/m 0,00 h 0,00 h 0 W/m 4,8 km/h (1 Bft) 96,66 %
09.11.2016 03:00 0,3 C 0,6 C -0,7 C 94 % 3 lf 1004,9 hPa 0,0 l/m 0,00 h 0,67 h 0 W/m 6,6 km/h (2 Bft) 94,73 %
09.11.2016 04:00 0,6 C 0,6 C -0,8 C 95 % 11 lf 1004,2 hPa 0,0 l/m 0,00 h 0,32 h 0 W/m 8,1 km/h (2 Bft) 98,15 %
09.11.2016 05:00 0,9 C 1,1 C -0,2 C 96 % 8 lf 1003,5 hPa 0,0 l/m 0,00 h 0,00 h 0 W/m 9,7 km/h (2 Bft) 95,37 %
09.11.2016 06:00 1,4 C 1,7 C 0,5 C 96 % 4 lf 1003,0 hPa 0,2 l/m 0,00 h 0,00 h 0 W/m 10,6 km/h (2 Bft) 93,92 %
09.11.2016 07:00 1,8 C 2,1 C 0,8 C 97 % 0 lf 1002,6 hPa 0,2 l/m 0,00 h 0,40 h 4 W/m 11,3 km/h (2 Bft) 97,29 %
09.11.2016 08:00 2,3 C 2,5 C 1,3 C 97 % 1 lf 1002,4 hPa 0,2 l/m 0,00 h 0,53 h 13 W/m 12,2 km/h (2 Bft) 96,80 %
09.11.2016 09:00 2,8 C 3,1 C 2,1 C 97 % 1 lf 1002,2 hPa 0,4 l/m 0,00 h 0,50 h 30 W/m 17,4 km/h (3 Bft) 95,29 %
09.11.2016 10:00 3,2 C 3,3 C 2,2 C 97 % 14 lf 1001,9 hPa 0,6 l/m 0,00 h 0,87 h 26 W/m 19,2 km/h (3 Bft) 95,30 %
09.11.2016 11:00 3,5 C 3,9 C 2,8 C 97 % 6 lf 1001,3 hPa 0,0 l/m 0,00 h 0,07 h 58 W/m 21,1 km/h (4 Bft) 96,93 %
09.11.2016 12:00 4,0 C 4,3 C 3,4 C 97 % 13 lf 1000,5 hPa 0,4 l/m 0,00 h 0,83 h 85 W/m 22,5 km/h (4 Bft) 96,21 %
09.11.2016 13:00 4,4 C 4,4 C 3,7 C 97 % 13 lf 999,8 hPa 0,2 l/m 0,00 h 0,80 h 69 W/m 21,3 km/h (4 Bft) 96,15 %
09.11.2016 14:00 4,6 C 4,4 C 3,5 C 97 % 14 lf 999,2 hPa 0,6 l/m 0,00 h 1,00 h 47 W/m 21,9 km/h (4 Bft) 95,38 %
09.11.2016 15:00 4,7 C 4,4 C 3,4 C 97 % 15 lf 998,7 hPa 0,6 l/m 0,00 h 1,00 h 24 W/m 19,7 km/h (3 Bft) 95,80 %
09.11.2016 16:00 4,4 C 4,2 C 3,2 C 97 % 15 lf 998,4 hPa 1,0 l/m 0,00 h 1,00 h 9 W/m 19,0 km/h (3 Bft) 95,44 %
09.11.2016 17:00 4,0 C 3,9 C 2,8 C 97 % 15 lf 998,3 hPa 1,2 l/m 0,00 h 1,00 h 0 W/m 20,2 km/h (4 Bft) 99,15 %
09.11.2016 18:00 3,8 C 3,7 C 2,8 C 97 % 15 lf 998,3 hPa 1,4 l/m 0,00 h 0,97 h 0 W/m 17,2 km/h (3 Bft) 93,49 %
09.11.2016 19:00 3,5 C 3,3 C 2,2 C 97 % 15 lf 998,3 hPa 1,4 l/m 0,00 h 1,00 h 0 W/m 16,7 km/h (3 Bft) 96,30 %
09.11.2016 20:00 3,0 C 2,8 C 1,8 C 97 % 15 lf 998,5 hPa 1,4 l/m 0,00 h 1,00 h 0 W/m 13,9 km/h (3 Bft) 96,73 %
09.11.2016 21:00 2,8 C 2,8 C 1,7 C 97 % 15 lf 999,1 hPa 1,8 l/m 0,00 h 1,00 h 0 W/m 6,8 km/h (2 Bft) 94,62 %
09.11.2016 22:00 2,3 C 2,1 C 1,1 C 97 % 15 lf 999,8 hPa 1,0 l/m 0,00 h 1,00 h 0 W/m 6,2 km/h (2 Bft) 96,93 %
09.11.2016 23:00 1,9 C 1,7 C 0,9 C 97 % 15 lf 1000,5 hPa 0,8 l/m 0,00 h 1,00 h 0 W/m 5,7 km/h (1 Bft) 95,81 %
10.11.2016 00:00 1,9 C 2,0 C 1,1 C 97 % 15 lf 1001,4 hPa 0,0 l/m 0,00 h 0,65 h 0 W/m 6,7 km/h (2 Bft) 95,14 %
10.11.2016 01:00 2,3 C 2,3 C 1,6 C 97 % 15 lf 1002,1 hPa 0,0 l/m 0,00 h 0,07 h 0 W/m 8,1 km/h (2 Bft) 97,36 %
10.11.2016 02:00 2,5 C 2,8 C 1,7 C 97 % 15 lf 1002,7 hPa 0,0 l/m 0,00 h 0,00 h 0 W/m 7,9 km/h (2 Bft) 97,44 %
10.11.2016 03:00 2,7 C 2,8 C 1,7 C 98 % 15 lf 1003,1 hPa 0,0 l/m 0,00 h 0,00 h 0 W/m 6,9 km/h (2 Bft) 93,23 %
10.11.2016 04:00 2,7 C 2,8 C 1,8 C 98 % 15 lf 1003,4 hPa 0,0 l/m 0,00 h 0,00 h 0 W/m 0,8 km/h (0 Bft) 97,07 %
10.11.2016 05:00 2,8 C 2,8 C 2,2 C 98 % 15 lf 1003,5 hPa 0,0 l/m 0,00 h 0,07 h 0 W/m 6,1 km/h (2 Bft) 95,80 %
10.11.2016 06:00 3,0 C 3,1 C 2,2 C 98 % 15 lf 1003,8 hPa 0,2 l/m 0,00 h 0,00 h 0 W/m 7,2 km/h (2 Bft) 96,27 %
10.11.2016 07:00 3,1 C 3,3 C 2,2 C 98 % 15 lf 1004,2 hPa 0,0 l/m 0,00 h 0,07 h 0 W/m 8,3 km/h (2 Bft) 95,30 %
10.11.2016 08:00 3,2 C 3,4 C 2,4 C 98 % 15 lf 1004,7 hPa 0,0 l/m 0,00 h 0,03 h 14 W/m 8,2 km/h (2 Bft) 95,72 %
10.11.2016 09:00 3,8 C 4,1 C 3,1 C 98 % 15 lf 1005,0 hPa 0,0 l/m 0,00 h 0,00 h 28 W/m 8,7 km/h (2 Bft) 96,73 %
10.11.2016 10:00 4,6 C 5,2 C 4,1 C 99 % 15 lf 1005,1 hPa 0,4 l/m 0,00 h 0,47 h 37 W/m 8,7 km/h (2 Bft) 96,01 %
10.11.2016 11:00 5,7 C 6,0 C 4,9 C 99 % 15 lf 1005,1 hPa 0,0 l/m 0,00 h 0,23 h 47 W/m 15,4 km/h (3 Bft) 97,29 %
10.11.2016 12:00 6,3 C 6,7 C 5,6 C 99 % 15 lf 1005,0 hPa 0,2 l/m 0,00 h 0,60 h 63 W/m 17,9 km/h (3 Bft) 94,05 %
10.11.2016 13:00 6,7 C 6,8 C 5,7 C 99 % 15 lf 1005,0 hPa 0,0 l/m 0,00 h 0,23 h 59 W/m 17,0 km/h (3 Bft) 96,65 %
10.11.2016 14:00 6,7 C 6,9 C 5,8 C 99 % 15 lf 1004,9 hPa 0,0 l/m 0,00 h 0,07 h 49 W/m 17,5 km/h (3 Bft) 97,44 %
10.11.2016 15:00 7,0 C 7,1 C 5,7 C 98 % 12 lf 1005,0 hPa 0,0 l/m 0,00 h 0,00 h 19 W/m 16,1 km/h (3 Bft) 94,95 %
10.11.2016 16:00 7,0 C 6,8 C 5,6 C 97 % 2 lf 1005,1 hPa 0,0 l/m 0,00 h 0,00 h 8 W/m 15,0 km/h (3 Bft) 94,37 %
10.11.2016 17:00 6,9 C 6,7 C 5,4 C 96 % 0 lf 1005,2 hPa 0,0 l/m 0,00 h 0,00 h 0 W/m 9,3 km/h (2 Bft) 97,88 %
10.11.2016 18:00 6,6 C 5,8 C 3,7 C 96 % 2 lf 1005,1 hPa 0,0 l/m 0,00 h 0,00 h 0 W/m 4,8 km/h (1 Bft) 94,51 %
10.11.2016 19:00 5,9 C 5,6 C 4,2 C 96 % 2 lf 1004,8 hPa 0,0 l/m 0,00 h 0,10 h 0 W/m 7,6 km/h (2 Bft) 96,51 %
10.11.2016 20:00 6,0 C 5,9 C 4,4 C 96 % 11 lf 1004,5 hPa 3,8 l/m 0,00 h 1,00 h 0 W/m 10,3 km/h (2 Bft) 96,30 %
10.11.2016 21:00 6,0 C 5,7 C 4,4 C 97 % 15 lf 1004,3 hPa 1,6 l/m 0,00 h 0,40 h 0 W/m 6,2 km/h (2 Bft) 94,37 %
10.11.2016 22:00 5,7 C 5,5 C 4,2 C 97 % 15 lf 1004,3 hPa 0,0 l/m 0,00 h 0,20 h 0 W/m 8,2 km/h (2 Bft) 98,08 %
10.11.2016 23:00 5,4 C 4,7 C 3,1 C 97 % 15 lf 1004,4 hPa 0,0 l/m 0,00 h 0,00 h 0 W/m 3,8 km/h (1 Bft) 97,00 %
11.11.2016 00:00 5,1 C 5,1 C 3,8 C 97 % 15 lf 1004,9 hPa 0,0 l/m 0,00 h 0,00 h 0 W/m 5,7 km/h (1 Bft) 89,72 %
11.11.2016 01:00 5,4 C 5,6 C 4,4 C 97 % 15 lf 1005,3 hPa 0,0 l/m 0,00 h 0,10 h 0 W/m 8,0 km/h (2 Bft) 97,08 %
11.11.2016 02:00 5,3 C 5,2 C 4,0 C 98 % 15 lf 1005,9 hPa 0,0 l/m 0,00 h 0,13 h 0 W/m 9,2 km/h (2 Bft) 97,72 %
11.11.2016 03:00 4,3 C 4,0 C 2,9 C 97 % 15 lf 1006,7 hPa 0,0 l/m 0,00 h 0,23 h 0 W/m 12,7 km/h (3 Bft) 95,66 %
11.11.2016 04:00 3,8 C 3,7 C 2,8 C 97 % 15 lf 1007,5 hPa 0,6 l/m 0,00 h 1,00 h 0 W/m 12,5 km/h (3 Bft) 95,80 %
11.11.2016 05:00 3,8 C 3,9 C 2,8 C 97 % 15 lf 1008,5 hPa 0,4 l/m 0,00 h 0,93 h 0 W/m 7,8 km/h (2 Bft) 95,23 %
11.11.2016 06:00 4,2 C 4,3 C 3,2 C 98 % 15 lf 1009,8 hPa 0,2 l/m 0,00 h 0,53 h 0 W/m 19,4 km/h (3 Bft) 96,72 %
11.11.2016 07:00 4,0 C 3,9 C 2,8 C 98 % 15 lf 1011,6 hPa 0,0 l/m 0,00 h 0,47 h 0 W/m 21,2 km/h (4 Bft) 97,30 %
11.11.2016 08:00 3,7 C 3,9 C 2,8 C 98 % 15 lf 1013,4 hPa 0,0 l/m 0,00 h 0,33 h 7 W/m 22,7 km/h (4 Bft) 94,44 %
11.11.2016 09:00 3,6 C 3,9 C 2,8 C 98 % 14 lf 1014,9 hPa 0,0 l/m 0,00 h 0,33 h 14 W/m 22,5 km/h (4 Bft) 95,88 %
11.11.2016 10:00 3,6 C 3,9 C 2,8 C 98 % 7 lf 1016,1 hPa 0,0 l/m 0,00 h 0,07 h 22 W/m 19,0 km/h (3 Bft) 95,44 %
11.11.2016 11:00 3,6 C 3,9 C 2,8 C 97 % 0 lf 1017,3 hPa 0,0 l/m 0,00 h 0,00 h 34 W/m 18,7 km/h (3 Bft) 98,21 %
11.11.2016 12:00 3,6 C 3,7 C 2,8 C 96 % 0 lf 1018,1 hPa 0,0 l/m 0,00 h 0,00 h 43 W/m 20,1 km/h (4 Bft) 94,84 %
11.11.2016 13:00 3,5 C 3,6 C 2,8 C 93 % 0 lf 1018,9 hPa 0,0 l/m 0,00 h 0,00 h 45 W/m 20,1 km/h (4 Bft) 93,74 %
11.11.2016 14:00 3,5 C 3,6 C 2,9 C 91 % 0 lf 1019,7 hPa 0,0 l/m 0,00 h 0,00 h 55 W/m 18,1 km/h (3 Bft) 97,94 %
11.11.2016 15:00 3,7 C 4,3 C 3,2 C 89 % 0 lf 1020,7 hPa 0,0 l/m 0,00 h 0,00 h 44 W/m 12,2 km/h (2 Bft) 96,30 %
11.11.2016 16:00 3,6 C 3,9 C 2,6 C 88 % 0 lf 1021,5 hPa 0,0 l/m 0,00 h 0,00 h 14 W/m 12,2 km/h (2 Bft) 95,87 %
11.11.2016 17:00 3,5 C 3,4 C 2,2 C 88 % 0 lf 1022,2 hPa 0,0 l/m 0,00 h 0,00 h 0 W/m 7,3 km/h (2 Bft) 95,09 %
11.11.2016 18:00 3,1 C 3,1 C 1,8 C 89 % 0 lf 1023,0 hPa 0,0 l/m 0,00 h 0,00 h 0 W/m 10,2 km/h (2 Bft) 95,93 %
11.11.2016 19:00 2,8 C 2,6 C 1,4 C 87 % 0 lf 1023,7 hPa 0,0 l/m 0,00 h 0,00 h 0 W/m 8,7 km/h (2 Bft) 96,53 %
11.11.2016 20:00 2,3 C 2,2 C 0,8 C 87 % 0 lf 1023,9 hPa 0,0 l/m 0,00 h 0,00 h 0 W/m 8,9 km/h (2 Bft) 98,22 %
11.11.2016 21:00 1,9 C 2,0 C 0,8 C 87 % 0 lf 1024,2 hPa 0,0 l/m 0,00 h 0,00 h 0 W/m 10,0 km/h (2 Bft) 93,78 %
11.11.2016 22:00 1,6 C 1,8 C 0,5 C 87 % 0 lf 1024,5 hPa 0,0 l/m 0,00 h 0,00 h 0 W/m 7,2 km/h (2 Bft) 95,87 %
11.11.2016 23:00 1,7 C 2,0 C 0,7 C 87 % 0 lf 1024,6 hPa 0,0 l/m 0,00 h 0,00 h 0 W/m 4,2 km/h (1 Bft) 96,15 %
12.11.2016 00:00 1,5 C 0,7 C -0,7 C 87 % 0 lf 1024,4 hPa 0,0 l/m 0,00 h 0,00 h 0 W/m 0,0 km/h (0 Bft) 97,59 %
12.11.2016 01:00 0,7 C -0,9 C -2,2 C 88 % 1 lf 1024,2 hPa 0,0 l/m 0,00 h 0,00 h 0 W/m 0,0 km/h (0 Bft) 94,80 %
12.11.2016 02:00 -0,2 C -1,0 C -1,8 C 89 % 1 lf 1024,3 hPa 0,0 l/m 0,00 h 0,00 h 0 W/m 0,0 km/h (0 Bft) 94,45 %
12.11.2016 03:00 -0,1 C 0,1 C -0,5 C 91 % 0 lf 1024,2 hPa 0,0 l/m 0,00 h 0,00 h 0 W/m 0,0 km/h (0 Bft) 98,64 %
12.11.2016 04:00 0,3 C 0,7 C 0,0 C 92 % 0 lf 1024,0 hPa 0,0 l/m 0,00 h 0,00 h 0 W/m 0,0 km/h (0 Bft) 94,14 %
12.11.2016 05:00 0,7 C 0,9 C -0,3 C 94 % 0 lf 1023,8 hPa 0,0 l/m 0,00 h 0,03 h 0 W/m 3,6 km/h (1 Bft) 98,51 %
12.11.2016 06:00 0,6 C 0,7 C -0,8 C 94 % 1 lf 1023,6 hPa 0,0 l/m 0,00 h 0,00 h 0 W/m 4,2 km/h (1 Bft) 95,80 %
12.11.2016 07:00 0,7 C 0,9 C -0,4 C 94 % 0 lf 1023,7 hPa 0,0 l/m 0,00 h 0,00 h 8 W/m 8,1 km/h (2 Bft) 93,31 %
12.11.2016 08:00 0,4 C 0,7 C -0,6 C 95 % 0 lf 1023,7 hPa 0,0 l/m 0,40 h 0,00 h 43 W/m 12,1 km/h (2 Bft) 97,39 %
12.11.2016 09:00 0,8 C 2,5 C 0,7 C 95 % 0 lf 1023,6 hPa 0,0 l/m 0,77 h 0,00 h 123 W/m 16,4 km/h (3 Bft) 96,70 %
12.11.2016 10:00 2,4 C 6,3 C 2,0 C 93 % 0 lf 1023,4 hPa 0,0 l/m 1,00 h 0,00 h 220 W/m 21,1 km/h (4 Bft) 95,36 %
12.11.2016 11:00 3,8 C 6,7 C 2,9 C 86 % 0 lf 1023,5 hPa 0,0 l/m 1,00 h 0,00 h 273 W/m 25,0 km/h (4 Bft) 98,08 %
12.11.2016 12:00 4,3 C 6,1 C 3,5 C 82 % 0 lf 1023,2 hPa 0,0 l/m 0,73 h 0,00 h 245 W/m 23,3 km/h (4 Bft) 95,59 %
12.11.2016 13:00 4,5 C 6,6 C 4,2 C 81 % 0 lf 1022,7 hPa 0,0 l/m 0,93 h 0,00 h 229 W/m 21,5 km/h (4 Bft) 93,96 %
12.11.2016 14:00 4,9 C 6,4 C 3,7 C 80 % 0 lf 1022,3 hPa 0,0 l/m 0,47 h 0,00 h 129 W/m 22,0 km/h (4 Bft) 98,43 %
12.11.2016 15:00 4,4 C 5,2 C 3,2 C 81 % 0 lf 1021,9 hPa 0,0 l/m 0,97 h 0,00 h 93 W/m 18,6 km/h (3 Bft) 95,80 %
12.11.2016 16:00 3,9 C 4,0 C 2,4 C 82 % 0 lf 1021,6 hPa 0,0 l/m 0,07 h 0,00 h 20 W/m 18,9 km/h (3 Bft) 93,77 %
12.11.2016 17:00 3,6 C 3,8 C 2,2 C 84 % 0 lf 1021,7 hPa 0,0 l/m 0,00 h 0,00 h 0 W/m 17,6 km/h (3 Bft) 97,35 %
12.11.2016 18:00 3,3 C 3,3 C 1,9 C 85 % 0 lf 1021,8 hPa 0,0 l/m 0,00 h 0,00 h 4 W/m 18,8 km/h (3 Bft) 96,58 %
12.11.2016 19:00 3,1 C 3,3 C 1,8 C 85 % 0 lf 1022,0 hPa 0,0 l/m 0,00 h 0,00 h 5 W/m 17,0 km/h (3 Bft) 95,92 %
12.11.2016 20:00 3,0 C 3,3 C 1,7 C 85 % 0 lf 1022,0 hPa 0,0 l/m 0,00 h 0,00 h 5 W/m 17,0 km/h (3 Bft) 95,72 %
12.11.2016 21:00 3,1 C 3,3 C 1,7 C 85 % 0 lf 1022,2 hPa 0,0 l/m 0,00 h 0,00 h 5 W/m 17,7 km/h (3 Bft) 93,72 %
12.11.2016 22:00 3,0 C 3,3 C 1,7 C 85 % 0 lf 1022,1 hPa 0,0 l/m 0,00 h 0,00 h 5 W/m 17,6 km/h (3 Bft) 97,37 %
12.11.2016 23:00 2,8 C 3,0 C 1,5 C 85 % 0 lf 1021,8 hPa 0,0 l/m 0,00 h 0,00 h 0 W/m 19,7 km/h (3 Bft) 98,10 %
13.11.2016 00:00 2,4 C 2,8 C 1,1 C 87 % 0 lf 1021,7 hPa 0,0 l/m 0,00 h 0,00 h 0 W/m 19,0 km/h (3 Bft) 93,33 %
13.11.2016 01:00 2,2 C 2,4 C 0,9 C 87 % 0 lf 1021,5 hPa 0,0 l/m 0,00 h 0,00 h 0 W/m 18,2 km/h (3 Bft) 96,81 %
13.11.2016 02:00 2,1 C 2,2 C 1,0 C 87 % 0 lf 1021,4 hPa 0,0 l/m 0,00 h 0,00 h 0 W/m 19,4 km/h (3 Bft) 96,07 %
13.11.2016 03:00 2,1 C 2,2 C 1,1 C 87 % 0 lf 1021,5 hPa 0,0 l/m 0,00 h 0,00 h 0 W/m 15,8 km/h (3 Bft) 96,02 %
13.11.2016 04:00 2,1 C 2,2 C 1,1 C 88 % 0 lf 1021,7 hPa 0,0 l/m 0,00 h 0,00 h 0 W/m 14,0 km/h (3 Bft) 95,09 %
13.11.2016 05:00 2,1 C 2,2 C 0,9 C 88 % 0 lf 1021,9 hPa 0,0 l/m 0,00 h 0,00 h 0 W/m 14,1 km/h (3 Bft) 95,67 %
13.11.2016 06:00 1,9 C 2,2 C 1,1 C 88 % 0 lf 1022,3 hPa 0,0 l/m 0,00 h 0,00 h 0 W/m 16,6 km/h (3 Bft) 96,06 %
13.11.2016 07:00 1,9 C 2,2 C 0,7 C 88 % 0 lf 1022,6 hPa 0,0 l/m 0,00 h 0,00 h 9 W/m 14,1 km/h (3 Bft) 97,39 %
13.11.2016 08:00 1,9 C 2,5 C 1,3 C 88 % 0 lf 1023,1 hPa 0,0 l/m 0,00 h 0,00 h 33 W/m 18,1 km/h (3 Bft) 95,30 %
13.11.2016 09:00 2,5 C 3,5 C 2,4 C 86 % 0 lf 1023,6 hPa 0,0 l/m 0,13 h 0,00 h 91 W/m 19,3 km/h (3 Bft) 95,26 %
13.11.2016 10:00 3,4 C 4,7 C 4,0 C 84 % 0 lf 1023,8 hPa 0,0 l/m 0,60 h 0,00 h 151 W/m 20,3 km/h (4 Bft) 95,65 %
13.11.2016 11:00 4,0 C 5,1 C 4,3 C 83 % 0 lf 1024,0 hPa 0,0 l/m 0,13 h 0,00 h 122 W/m 15,3 km/h (3 Bft) 97,09 %
13.11.2016 12:00 4,5 C 5,5 C 4,7 C 82 % 0 lf 1024,1 hPa 0,0 l/m 0,00 h 0,00 h 108 W/m 15,5 km/h (3 Bft) 93,81 %
13.11.2016 13:00 4,8 C 5,6 C 4,4 C 81 % 0 lf 1024,3 hPa 0,0 l/m 0,00 h 0,00 h 68 W/m 11,9 km/h (2 Bft) 95,78 %
13.11.2016 14:00 4,9 C 5,5 C 4,1 C 81 % 0 lf 1024,9 hPa 0,0 l/m 0,00 h 0,37 h 59 W/m 11,7 km/h (2 Bft) 97,24 %
13.11.2016 15:00 4,9 C 4,3 C 3,0 C 85 % 4 lf 1025,2 hPa 0,2 l/m 0,00 h 1,00 h 32 W/m 8,7 km/h (2 Bft) 95,70 %
13.11.2016 16:00 4,5 C 3,9 C 2,6 C 89 % 5 lf 1025,5 hPa 0,0 l/m 0,00 h 0,40 h 17 W/m 10,2 km/h (2 Bft) 94,95 %
13.11.2016 17:00 4,1 C 3,9 C 2,2 C 90 % 1 lf 1026,0 hPa 0,0 l/m 0,00 h 0,27 h 0 W/m 7,3 km/h (2 Bft) 95,87 %
13.11.2016 18:00 4,1 C 3,9 C 2,2 C 91 % 1 lf 1026,9 hPa 0,0 l/m 0,00 h 0,47 h 0 W/m 7,7 km/h (2 Bft) 95,15 %
13.11.2016 19:00 4,0 C 4,4 C 2,2 C 91 % 0 lf 1027,7 hPa 0,0 l/m 0,00 h 0,00 h 0 W/m 6,9 km/h (2 Bft) 96,04 %
13.11.2016 20:00 3,9 C 4,2 C 2,2 C 91 % 0 lf 1028,6 hPa 0,0 l/m 0,00 h 0,00 h 0 W/m 7,8 km/h (2 Bft) 97,58 %
13.11.2016 21:00 3,8 C 4,0 C 2,5 C 89 % 0 lf 1029,1 hPa 0,0 l/m 0,00 h 0,00 h 0 W/m 9,5 km/h (2 Bft) 92,52 %
13.11.2016 22:00 3,7 C 3,6 C 2,1 C 88 % 0 lf 1029,6 hPa 0,0 l/m 0,00 h 0,00 h 0 W/m 10,6 km/h (2 Bft) 96,51 %
13.11.2016 23:00 2,7 C 2,1 C 0,2 C 87 % 0 lf 1029,6 hPa 0,0 l/m 0,00 h 0,00 h 0 W/m 11,8 km/h (2 Bft) 96,56 %
Min-Datum _ 12.11.16 12.11.16 09.11.16 12.11.16 07.11.16 09.11.16 - - - - 07.11.16 11.11.16
_ Min-Zeit 02:50 02:12 01:56 14:14 00:00 19:14 - - - - 04:40 00:02
Minimum _ -0,4 C -1,7 C -2,2 C 79 % 0 lf 998,1 hPa - - - - 0,0 km/h (0 Bft) 14,29 %
Max-Datum _ 10.11.16 08.11.16 10.11.16 10.11.16 07.11.16 13.11.16 10.11.16 08.11.16 07.11.16 08.11.16 09.11.16 07.11.16
_ Max-Zeit 15:44 13:34 13:20 10:18 13:14 22:58 20:24 09:02 02:08 11:54 17:58 00:06
Maximum _ 7,1 C 11,1 C 6,1 C 99 % 15 lf 1029,8 hPa 3,8 l/m 0,03 h 0,03 h 430 W/m 33,5 km/h
SO (5 Bft)
100,00 %
Durchschnitt _ 3,5 C 3,7 C 2,4 C 93 % 6 lf 1011,8 hPa #23,4 l/m #11:02 h #33:00 h 59 W/m 11,5 km/h (2 Bft) 95,98 %
© 2016 W. Hausmann